createdAt,value
2023-04-28T00:01:18.538Z,7.32
2023-04-28T00:03:47.274Z,7.40
2023-04-28T00:06:16.053Z,7.53
2023-04-28T00:08:44.495Z,7.85
2023-04-28T00:11:12.989Z,7.65
2023-04-28T00:13:41.529Z,7.95
2023-04-28T00:16:11.347Z,7.40
2023-04-28T00:18:40.108Z,7.28
2023-04-28T00:21:08.678Z,7.88
2023-04-28T00:23:37.124Z,7.70
2023-04-28T00:26:06.138Z,7.43
2023-04-28T00:28:35.189Z,8.52
2023-04-28T00:31:03.953Z,7.50
2023-04-28T00:33:33.826Z,7.93
2023-04-28T00:36:02.314Z,8.15
2023-04-28T00:38:30.796Z,8.23
2023-04-28T00:40:59.207Z,8.35
2023-04-28T00:43:27.795Z,7.85
2023-04-28T00:45:56.466Z,9.18
2023-04-28T00:48:25.108Z,8.60
2023-04-28T00:50:54.951Z,8.55
2023-04-28T00:53:23.406Z,8.38
2023-04-28T00:55:53.571Z,8.60
2023-04-28T00:58:22.168Z,8.85
2023-04-28T01:00:50.590Z,8.88
2023-04-28T01:03:19.203Z,8.20
2023-04-28T01:05:47.980Z,8.75
2023-04-28T01:08:17.807Z,9.93
2023-04-28T01:10:46.333Z,9.35
2023-04-28T01:13:14.786Z,9.40
2023-04-28T01:15:43.254Z,9.23
2023-04-28T01:18:11.912Z,9.35
2023-04-28T01:20:40.370Z,9.23
2023-04-28T01:23:14.074Z,9.18
2023-04-28T01:25:44.260Z,9.25
2023-04-28T01:28:13.263Z,10.10
2023-04-28T01:30:41.753Z,9.48
2023-04-28T01:33:10.305Z,9.05
2023-04-28T01:35:38.770Z,9.98
2023-04-28T01:38:07.351Z,9.55
2023-04-28T01:40:36.337Z,9.98
2023-04-28T01:43:07.028Z,10.20
2023-04-28T01:45:35.444Z,10.35
2023-04-28T01:48:04.051Z,10.68
2023-04-28T01:50:32.502Z,10.65
2023-04-28T01:53:01.000Z,10.82
2023-04-28T01:55:29.433Z,11.55
2023-04-28T01:57:58.525Z,9.90
2023-04-28T02:00:28.773Z,10.60
2023-04-28T02:02:57.296Z,10.98
2023-04-28T02:05:25.841Z,10.52
2023-04-28T02:07:54.383Z,11.75
2023-04-28T02:10:22.891Z,10.45
2023-04-28T02:12:51.369Z,10.85
2023-04-28T02:15:19.888Z,10.27
2023-04-28T02:17:49.801Z,10.68
2023-04-28T02:20:18.376Z,11.23
2023-04-28T02:22:46.881Z,10.65
2023-04-28T02:25:15.430Z,10.98
2023-04-28T02:27:43.869Z,10.90
2023-04-28T02:30:12.842Z,11.77
2023-04-28T02:32:41.368Z,10.60
2023-04-28T02:35:11.609Z,11.18
2023-04-28T02:37:40.076Z,12.05
2023-04-28T02:40:09.236Z,10.13
2023-04-28T02:42:37.776Z,11.18
2023-04-28T02:45:06.607Z,11.57
2023-04-28T02:47:35.119Z,11.50
2023-04-28T02:50:03.918Z,11.50
2023-04-28T02:52:33.828Z,12.18
2023-04-28T02:55:03.862Z,12.50
2023-04-28T02:57:32.492Z,11.90
2023-04-28T03:00:01.091Z,12.27
2023-04-28T03:02:29.679Z,12.02
2023-04-28T03:04:58.211Z,12.02
2023-04-28T03:07:26.886Z,11.93
2023-04-28T03:09:56.709Z,12.13
2023-04-28T03:12:25.160Z,11.13
2023-04-28T03:14:53.635Z,12.25
2023-04-28T03:17:22.217Z,12.13
2023-04-28T03:19:50.674Z,12.90
2023-04-28T03:22:19.187Z,11.77
2023-04-28T03:24:47.600Z,12.25
2023-04-28T03:27:17.504Z,12.70
2023-04-28T03:29:46.006Z,11.57
2023-04-28T03:32:14.575Z,11.55
2023-04-28T03:34:43.062Z,12.00
2023-04-28T03:37:11.943Z,12.27
2023-04-28T03:39:40.496Z,11.05
2023-04-28T03:42:09.006Z,12.43
2023-04-28T03:44:38.799Z,12.60
2023-04-28T03:47:07.499Z,12.23
2023-04-28T03:49:35.976Z,11.75
2023-04-28T03:52:04.530Z,11.38
2023-04-28T03:54:33.269Z,12.15
2023-04-28T03:57:02.241Z,11.35
2023-04-28T03:59:30.670Z,11.00
2023-04-28T04:02:00.759Z,11.27
2023-04-28T04:04:29.702Z,10.25
2023-04-28T04:06:58.393Z,10.82
2023-04-28T04:09:27.055Z,10.82
2023-04-28T04:11:55.542Z,10.77
2023-04-28T04:14:24.029Z,11.88
2023-04-28T04:16:52.775Z,11.25
2023-04-28T04:19:24.007Z,10.10
2023-04-28T04:21:52.638Z,10.75
2023-04-28T04:24:21.084Z,11.13
2023-04-28T04:26:49.602Z,10.55
2023-04-28T04:29:18.110Z,10.77
2023-04-28T04:31:46.639Z,10.48
2023-04-28T04:34:15.497Z,10.23
2023-04-28T04:36:45.617Z,9.38
2023-04-28T04:39:14.048Z,9.95
2023-04-28T04:41:42.955Z,11.27
2023-04-28T04:44:13.170Z,10.73
2023-04-28T04:46:42.920Z,10.35
2023-04-28T04:49:11.423Z,9.60
2023-04-28T04:51:39.961Z,11.00
2023-04-28T04:54:09.793Z,10.38
2023-04-28T04:56:38.599Z,10.27
2023-04-28T04:59:07.121Z,10.07
2023-04-28T05:01:36.083Z,10.73
2023-04-28T05:09:23.077Z,11.35
2023-04-28T05:14:35.595Z,10.48
2023-04-28T05:17:25.930Z,9.95
2023-04-28T05:19:54.392Z,9.57
2023-04-28T05:22:22.885Z,9.75
2023-04-28T05:24:52.784Z,10.70
2023-04-28T05:27:21.395Z,10.52
2023-04-28T05:29:49.956Z,10.82
2023-04-28T05:32:18.439Z,10.13
2023-04-28T05:34:47.006Z,10.80
2023-04-28T05:37:15.499Z,10.80
2023-04-28T05:39:43.993Z,10.02
2023-04-28T05:42:14.209Z,10.40
2023-04-28T05:44:43.201Z,10.23
2023-04-28T05:47:11.992Z,10.27
2023-04-28T05:49:40.550Z,11.52
2023-04-28T05:52:10.242Z,11.55
2023-04-28T05:54:38.654Z,10.70
2023-04-28T05:57:07.194Z,9.32
2023-04-28T05:59:36.991Z,10.32
2023-04-28T06:02:05.680Z,11.02
2023-04-28T06:04:34.516Z,10.13
2023-04-28T06:07:03.113Z,11.10
2023-04-28T06:09:31.673Z,10.95
2023-04-28T06:12:00.170Z,10.93
2023-04-28T06:14:28.710Z,10.52
2023-04-28T06:16:58.598Z,10.77
2023-04-28T06:19:27.097Z,10.77
2023-04-28T06:21:55.664Z,10.98
2023-04-28T06:24:24.107Z,11.57
2023-04-28T06:26:52.579Z,10.85
2023-04-28T06:29:23.346Z,10.80
2023-04-28T06:31:52.919Z,10.88
2023-04-28T06:34:22.933Z,10.82
2023-04-28T06:36:51.415Z,10.02
2023-04-28T06:39:19.905Z,9.70
2023-04-28T06:41:48.449Z,10.02
2023-04-28T06:44:17.112Z,10.52
2023-04-28T06:46:45.961Z,9.75
2023-04-28T06:49:14.526Z,10.35
2023-04-28T06:51:44.474Z,9.60
2023-04-28T06:54:13.628Z,10.23
2023-04-28T06:56:42.102Z,9.82
2023-04-28T06:59:10.589Z,10.20
2023-04-28T07:01:39.422Z,10.00
2023-04-28T07:04:08.174Z,8.85
2023-04-28T07:06:37.075Z,9.52
2023-04-28T07:09:06.975Z,9.85
2023-04-28T07:11:35.430Z,9.32
2023-04-28T07:14:04.024Z,9.00
2023-04-28T07:16:32.633Z,8.63
2023-04-28T07:19:01.507Z,7.72
2023-04-28T07:21:30.091Z,7.40
2023-04-28T07:23:58.570Z,7.82
2023-04-28T07:26:28.508Z,7.13
2023-04-28T07:28:57.120Z,7.15
2023-04-28T07:31:26.252Z,7.25
2023-04-28T07:33:55.022Z,8.02
2023-04-28T07:36:23.563Z,6.80
2023-04-28T07:38:51.995Z,7.03
2023-04-28T07:41:20.594Z,7.47
2023-04-28T07:43:50.578Z,8.18
2023-04-28T07:46:19.484Z,7.10
2023-04-28T07:48:48.032Z,7.03
2023-04-28T07:51:16.579Z,7.30
2023-04-28T07:53:51.480Z,7.20
2023-04-28T07:56:20.017Z,7.00
2023-04-28T07:58:49.883Z,7.10
2023-04-28T08:01:18.398Z,7.13
2023-04-28T08:03:47.131Z,7.07
2023-04-28T08:06:15.887Z,6.65
2023-04-28T08:08:44.339Z,7.55
2023-04-28T08:11:12.810Z,7.15
2023-04-28T08:13:41.367Z,7.13
2023-04-28T08:16:11.354Z,7.22
2023-04-28T08:18:39.937Z,7.55
2023-04-28T08:21:08.513Z,7.78
2023-04-28T08:23:36.941Z,7.40
2023-04-28T08:26:06.144Z,7.53
2023-04-28T08:28:35.050Z,7.15
2023-04-28T08:31:05.419Z,7.25
2023-04-28T08:33:35.366Z,7.55
2023-04-28T08:36:03.965Z,7.80
2023-04-28T08:38:32.390Z,7.20
2023-04-28T08:41:00.944Z,7.57
2023-04-28T08:43:30.178Z,8.05
2023-04-28T08:45:58.798Z,7.88
2023-04-28T08:48:28.839Z,8.10
2023-04-28T08:50:59.418Z,8.05
2023-04-28T08:53:28.705Z,7.78
2023-04-28T08:55:58.124Z,7.43
2023-04-28T08:58:26.913Z,7.43
2023-04-28T09:00:55.678Z,7.72
2023-04-28T09:03:24.432Z,7.65
2023-04-28T09:05:56.138Z,8.35
2023-04-28T09:08:26.199Z,8.30
2023-04-28T09:11:08.560Z,7.75
2023-04-28T09:13:37.403Z,7.90
2023-04-28T09:16:06.415Z,8.73
2023-04-28T09:18:35.081Z,8.80
2023-04-28T09:21:07.450Z,9.30
2023-04-28T09:23:37.821Z,8.75
2023-04-28T09:26:07.857Z,9.63
2023-04-28T09:28:37.030Z,9.30
2023-04-28T09:31:05.996Z,10.40
2023-04-28T09:33:35.019Z,9.73
2023-04-28T09:36:03.678Z,11.05
2023-04-28T09:38:32.268Z,10.95
2023-04-28T09:41:03.823Z,11.20
2023-04-28T09:43:33.251Z,11.50
2023-04-28T09:46:02.465Z,11.07
2023-04-28T09:48:31.959Z,11.32
2023-04-28T09:51:00.813Z,9.98
2023-04-28T09:53:30.037Z,9.95
2023-04-28T09:55:59.605Z,9.50
2023-04-28T09:58:30.719Z,11.05
2023-04-28T10:00:59.864Z,9.65
2023-04-28T10:03:30.125Z,10.23
2023-04-28T10:05:59.385Z,10.63
2023-04-28T10:08:28.390Z,10.75
2023-04-28T10:10:57.931Z,11.23
2023-04-28T10:13:26.533Z,11.05
2023-04-28T10:15:58.518Z,10.40
2023-04-28T10:18:27.425Z,10.57
2023-04-28T10:20:58.744Z,9.88
2023-04-28T10:23:39.689Z,11.77
2023-04-28T10:26:13.067Z,11.35
2023-04-28T10:28:47.301Z,11.82
2023-04-28T10:31:18.472Z,12.18
2023-04-28T10:33:47.126Z,12.38
2023-04-28T10:36:36.205Z,11.77
2023-04-28T10:39:12.399Z,11.82
2023-04-28T10:41:41.808Z,11.95
2023-04-28T10:44:28.681Z,13.25
2023-04-28T10:47:09.321Z,12.90
2023-04-28T10:49:57.817Z,12.18
2023-04-28T10:52:44.947Z,14.10
2023-04-28T10:55:32.256Z,14.30
2023-04-28T10:58:30.925Z,12.88
2023-04-28T11:01:19.464Z,14.32
2023-04-28T11:03:52.375Z,16.17
2023-04-28T11:06:22.866Z,16.60
2023-04-28T11:08:51.396Z,15.98
2023-04-28T11:11:25.142Z,16.35
2023-04-28T11:13:54.321Z,16.73
2023-04-28T11:16:24.193Z,16.77
2023-04-28T11:19:04.670Z,17.05
2023-04-28T11:21:34.089Z,16.05
2023-04-28T11:24:02.600Z,15.55
2023-04-28T11:26:31.156Z,16.08
2023-04-28T11:28:59.957Z,16.67
2023-04-28T11:31:28.878Z,18.40
2023-04-28T11:34:04.917Z,19.52
2023-04-28T11:36:35.560Z,19.02
2023-04-28T11:39:07.537Z,18.63
2023-04-28T11:41:36.351Z,19.60
2023-04-28T11:44:12.038Z,19.65
2023-04-28T11:46:47.154Z,20.25
2023-04-28T11:49:17.012Z,20.50
2023-04-28T11:51:46.982Z,22.35
2023-04-28T11:54:15.988Z,22.00
2023-04-28T11:56:45.038Z,21.48
2023-04-28T11:59:14.420Z,22.65
2023-04-28T12:01:49.625Z,23.80
2023-04-28T12:04:30.043Z,22.85
2023-04-28T12:07:02.100Z,23.67
2023-04-28T12:09:30.639Z,23.50
2023-04-28T12:12:00.184Z,23.73
2023-04-28T12:14:28.636Z,22.23
2023-04-28T12:16:58.448Z,19.77
2023-04-28T12:19:26.907Z,19.02
2023-04-28T12:22:04.475Z,17.63
2023-04-28T12:24:33.276Z,19.90
2023-04-28T12:27:17.870Z,14.27
2023-04-28T12:29:49.918Z,14.38
2023-04-28T12:32:18.617Z,13.43
2023-04-28T12:34:47.585Z,13.15
2023-04-28T12:37:17.892Z,11.73
2023-04-28T12:39:46.921Z,11.95
2023-04-28T12:42:16.066Z,12.13
2023-04-28T12:44:45.469Z,10.40
2023-04-28T12:47:14.212Z,9.73
2023-04-28T12:49:42.879Z,9.77
2023-04-28T12:52:12.058Z,10.48
2023-04-28T12:54:47.082Z,9.55
2023-04-28T12:57:15.715Z,9.18
2023-04-28T12:59:44.667Z,9.45
2023-04-28T13:02:13.858Z,9.93
2023-04-28T13:04:43.153Z,10.45
2023-04-28T13:07:12.021Z,9.85
2023-04-28T13:09:43.000Z,9.65
2023-04-28T13:12:11.963Z,9.50
2023-04-28T13:14:40.424Z,9.73
2023-04-28T13:17:09.195Z,9.70
2023-04-28T13:19:38.107Z,9.40
2023-04-28T13:22:06.983Z,9.50
2023-04-28T13:24:35.749Z,9.38
2023-04-28T13:27:09.604Z,8.90
2023-04-28T13:29:38.325Z,8.98
2023-04-28T13:32:06.954Z,9.10
2023-04-28T13:34:35.482Z,8.90
2023-04-28T13:37:03.930Z,9.15
2023-04-28T13:39:32.462Z,8.43
2023-04-28T13:42:01.682Z,8.68
2023-04-28T13:44:31.541Z,9.02
2023-04-28T13:47:02.690Z,8.98
2023-04-28T13:49:31.329Z,8.85
2023-04-28T13:51:59.812Z,8.57
2023-04-28T13:54:28.353Z,8.98
2023-04-28T13:56:58.082Z,8.68
2023-04-28T13:59:26.724Z,8.57
2023-04-28T14:01:56.532Z,8.57
2023-04-28T14:04:25.108Z,8.98
2023-04-28T14:06:54.169Z,8.88
2023-04-28T14:09:22.617Z,8.10
2023-04-28T14:11:51.085Z,7.60
2023-04-28T14:14:19.585Z,7.60
2023-04-28T14:16:49.814Z,6.95
2023-04-28T14:19:20.062Z,7.10
2023-04-28T14:21:48.700Z,6.45
2023-04-28T14:24:17.139Z,7.07
2023-04-28T14:26:45.566Z,7.75
2023-04-28T14:29:14.147Z,9.68
2023-04-28T14:31:42.657Z,7.10
2023-04-28T14:34:11.133Z,6.32
2023-04-28T14:36:42.271Z,5.85
2023-04-28T14:39:10.761Z,4.82
2023-04-28T14:41:39.200Z,4.70
2023-04-28T14:44:08.263Z,4.72
2023-04-28T14:46:37.879Z,4.50
2023-04-28T14:49:06.874Z,4.45
2023-04-28T14:51:35.474Z,5.05
2023-04-28T14:54:05.560Z,4.60
2023-04-28T14:56:34.305Z,4.30
2023-04-28T14:59:02.814Z,4.30
2023-04-28T15:01:32.345Z,3.95
2023-04-28T15:04:01.142Z,4.90
2023-04-28T15:06:29.745Z,4.13
2023-04-28T15:08:58.220Z,4.45
2023-04-28T15:11:28.131Z,4.50
2023-04-28T15:13:56.776Z,4.60
2023-04-28T15:16:25.225Z,5.10
2023-04-28T15:18:53.749Z,5.80
2023-04-28T15:21:23.522Z,6.43
2023-04-28T15:23:51.965Z,7.38
2023-04-28T15:26:20.403Z,8.27
2023-04-28T15:28:50.386Z,9.38
2023-04-28T15:31:18.919Z,9.25
2023-04-28T15:33:47.582Z,9.38
2023-04-28T15:36:18.131Z,8.95
2023-04-28T15:38:46.597Z,8.35
2023-04-28T15:41:15.047Z,7.78
2023-04-28T15:43:44.432Z,8.10
2023-04-28T15:46:17.136Z,7.38
2023-04-28T15:48:45.933Z,6.55
2023-04-28T15:51:14.375Z,6.57
2023-04-28T15:53:42.983Z,6.20
2023-04-28T15:56:11.581Z,5.60
2023-04-28T15:58:40.083Z,4.72
2023-04-28T16:01:08.787Z,4.45
2023-04-28T16:03:38.878Z,4.53
2023-04-28T16:06:08.332Z,5.40
2023-04-28T16:08:37.036Z,6.78
2023-04-28T16:11:05.484Z,6.07
2023-04-28T16:13:37.075Z,5.13
2023-04-28T16:16:06.847Z,5.53
2023-04-28T16:18:36.653Z,5.22
2023-04-28T16:21:06.535Z,5.07
2023-04-28T16:23:35.193Z,5.10
2023-04-28T16:26:03.614Z,5.05
2023-04-28T16:28:32.071Z,6.07
2023-04-28T16:31:00.829Z,7.95
2023-04-28T16:33:29.573Z,6.80
2023-04-28T16:36:00.130Z,6.40
2023-04-28T16:38:30.032Z,7.10
2023-04-28T16:40:58.459Z,8.60
2023-04-28T16:43:27.119Z,8.50
2023-04-28T16:45:55.610Z,8.93
2023-04-28T16:48:24.944Z,7.65
2023-04-28T16:50:53.442Z,7.82
2023-04-28T16:53:22.179Z,9.25
2023-04-28T16:55:51.978Z,9.38
2023-04-28T16:58:20.443Z,7.72
2023-04-28T17:00:48.928Z,7.13
2023-04-28T17:03:17.622Z,8.13
2023-04-28T17:05:46.179Z,7.70
2023-04-28T17:08:14.691Z,8.02
2023-04-28T17:10:43.265Z,7.72
2023-04-28T17:13:13.071Z,7.55
2023-04-28T17:15:41.715Z,7.65
2023-04-28T17:18:10.176Z,8.02
2023-04-28T17:20:38.691Z,8.57
2023-04-28T17:23:07.297Z,8.43
2023-04-28T17:25:35.937Z,8.85
2023-04-28T17:28:04.411Z,9.07
2023-04-28T17:30:34.219Z,9.75
2023-04-28T17:33:02.819Z,9.35
2023-04-28T17:35:31.430Z,9.05
2023-04-28T17:37:59.898Z,9.52
2023-04-28T17:40:28.300Z,9.32
2023-04-28T17:42:57.352Z,9.50
2023-04-28T17:45:25.866Z,10.00
2023-04-28T17:47:57.711Z,9.48
2023-04-28T17:50:26.414Z,10.52
2023-04-28T17:52:55.034Z,9.80
2023-04-28T17:55:23.527Z,9.20
2023-04-28T17:57:52.504Z,9.15
2023-04-28T18:00:21.088Z,8.77
2023-04-28T18:02:49.704Z,8.68
2023-04-28T18:05:20.490Z,8.57
2023-04-28T18:07:49.086Z,8.48
2023-04-28T18:10:17.800Z,8.23
2023-04-28T18:12:46.517Z,7.68
2023-04-28T18:15:14.948Z,7.32
2023-04-28T18:17:43.453Z,7.80
2023-04-28T18:20:12.278Z,7.18
2023-04-28T18:22:42.117Z,7.80
2023-04-28T18:25:11.329Z,7.57
2023-04-28T18:27:39.758Z,6.95
2023-04-28T18:30:08.850Z,7.13
2023-04-28T18:32:37.397Z,7.40
2023-04-28T18:35:06.057Z,7.40
2023-04-28T18:37:34.685Z,6.80
2023-04-28T18:40:05.083Z,7.43
2023-04-28T18:42:34.082Z,7.65
2023-04-28T18:45:02.863Z,7.20
2023-04-28T18:47:31.325Z,7.65
2023-04-28T18:50:00.997Z,7.78
2023-04-28T18:52:32.620Z,7.18
2023-04-28T18:55:01.040Z,7.95
2023-04-28T18:57:30.837Z,7.78
2023-04-28T19:00:00.817Z,8.00
2023-04-28T19:02:29.337Z,8.20
2023-04-28T19:04:58.317Z,9.18
2023-04-28T19:07:26.972Z,8.95
2023-04-28T19:09:55.392Z,9.00
2023-04-28T19:12:23.979Z,10.23
2023-04-28T19:14:53.857Z,10.18
2023-04-28T19:17:23.381Z,10.05
2023-04-28T19:19:51.931Z,9.50
2023-04-28T19:22:32.989Z,9.95
2023-04-28T19:25:01.457Z,10.18
2023-04-28T19:27:32.213Z,10.52
2023-04-28T19:30:02.341Z,10.60
2023-04-28T19:32:30.850Z,10.27
2023-04-28T19:34:59.358Z,10.52
2023-04-28T19:37:27.952Z,10.35
2023-04-28T19:39:56.409Z,10.15
2023-04-28T19:42:24.852Z,10.55
2023-04-28T19:44:56.271Z,10.77
2023-04-28T19:47:26.555Z,10.93
2023-04-28T19:49:55.462Z,10.50
2023-04-28T19:52:24.495Z,10.23
2023-04-28T19:54:53.642Z,10.40
2023-04-28T19:57:22.133Z,10.13
2023-04-28T19:59:51.066Z,10.32
2023-04-28T20:02:21.051Z,12.02
2023-04-28T20:04:51.363Z,10.85
2023-04-28T20:07:19.846Z,10.45
2023-04-28T20:09:48.473Z,11.50
2023-04-28T20:12:17.807Z,11.57
2023-04-28T20:14:46.576Z,12.13
2023-04-28T20:17:15.074Z,12.80
2023-04-28T20:19:43.740Z,12.00
2023-04-28T20:22:13.612Z,12.65
2023-04-28T20:24:42.425Z,12.55
2023-04-28T20:27:11.317Z,13.82
2023-04-28T20:29:40.184Z,13.68
2023-04-28T20:32:09.164Z,14.00
2023-04-28T20:34:38.641Z,14.50
2023-04-28T20:37:08.195Z,14.40
2023-04-28T20:39:37.983Z,14.73
2023-04-28T20:42:06.483Z,15.32
2023-04-28T20:44:35.768Z,14.65
2023-04-28T20:47:04.433Z,15.25
2023-04-28T20:49:32.907Z,15.52
2023-04-28T20:52:06.083Z,14.02
2023-04-28T20:54:36.149Z,15.55
2023-04-28T20:57:06.689Z,15.07
2023-04-28T20:59:35.860Z,14.88
2023-04-28T21:02:04.520Z,14.48
2023-04-28T21:04:32.986Z,14.95
2023-04-28T21:07:01.570Z,15.32
2023-04-28T21:09:30.151Z,16.50
2023-04-28T21:11:58.735Z,16.58
2023-04-28T21:14:28.675Z,16.77
2023-04-28T21:16:57.384Z,16.25
2023-04-28T21:19:25.898Z,16.40
2023-04-28T21:21:54.411Z,16.50
2023-04-28T21:24:23.053Z,16.23
2023-04-28T21:26:51.525Z,15.35
2023-04-28T21:29:20.053Z,15.73
2023-04-28T21:31:49.909Z,16.02
2023-04-28T21:34:18.366Z,16.00
2023-04-28T21:36:46.848Z,15.07
2023-04-28T21:39:15.299Z,14.90
2023-04-28T21:41:43.817Z,17.27
2023-04-28T21:44:13.212Z,16.23
2023-04-28T21:46:41.823Z,16.05
2023-04-28T21:49:11.809Z,18.08
2023-04-28T21:51:42.234Z,16.48
2023-04-28T21:54:10.976Z,17.33
2023-04-28T21:56:39.414Z,16.40
2023-04-28T21:59:07.952Z,16.70
2023-04-28T22:01:36.477Z,16.92
2023-04-28T22:04:07.631Z,16.77
2023-04-28T22:06:37.834Z,15.90
2023-04-28T22:09:07.057Z,17.55
2023-04-28T22:11:35.536Z,18.38
2023-04-28T22:14:04.322Z,15.55
2023-04-28T22:16:32.935Z,15.85
2023-04-28T22:19:02.316Z,15.38
2023-04-28T22:21:30.750Z,16.13
2023-04-28T22:24:00.584Z,16.95
2023-04-28T22:26:29.099Z,18.73
2023-04-28T22:28:57.615Z,18.33
2023-04-28T22:31:26.249Z,20.13
2023-04-28T22:33:54.877Z,19.42
2023-04-28T22:36:23.608Z,18.83
2023-04-28T22:38:52.264Z,20.10
2023-04-28T22:41:24.623Z,19.15
2023-04-28T22:43:53.257Z,21.17
2023-04-28T22:46:21.708Z,20.73
2023-04-28T22:48:50.346Z,22.17
2023-04-28T22:51:18.838Z,22.95
2023-04-28T22:53:48.412Z,23.67
2023-04-28T22:56:16.905Z,23.65
2023-04-28T22:58:46.843Z,23.85
2023-04-28T23:01:15.338Z,24.10
2023-04-28T23:03:44.669Z,26.92
2023-04-28T23:06:13.280Z,25.73
2023-04-28T23:08:41.867Z,26.45
2023-04-28T23:11:10.352Z,26.58
2023-04-28T23:13:38.971Z,27.58
2023-04-28T23:16:09.420Z,27.38
2023-04-28T23:18:37.887Z,29.92
2023-04-28T23:21:06.313Z,28.48
2023-04-28T23:23:34.801Z,28.30
2023-04-28T23:26:03.394Z,29.70
2023-04-28T23:28:31.988Z,29.60
2023-04-28T23:31:00.504Z,29.05
2023-04-28T23:33:30.661Z,29.38
2023-04-28T23:35:59.276Z,29.98
2023-04-28T23:38:27.770Z,30.85
2023-04-28T23:40:56.238Z,30.35
2023-04-28T23:43:24.769Z,31.10
2023-04-28T23:45:53.720Z,30.42
2023-04-28T23:48:22.514Z,31.13
2023-04-28T23:50:52.336Z,31.60
2023-04-28T23:53:21.112Z,31.73
2023-04-28T23:55:49.527Z,31.95
2023-04-28T23:58:18.210Z,30.77
